sensor_id;sensor_type;location;lat;lon;timestamp;P1;durP1;ratioP1;P2;durP2;ratioP2
71955;SDS011;59829;50.562;6.258;2024-02-28T00:04:10;6.63;;;2.80;;
71955;SDS011;59829;50.562;6.258;2024-02-28T00:14:11;6.15;;;2.55;;
71955;SDS011;59829;50.562;6.258;2024-02-28T00:24:11;6.28;;;2.53;;
71955;SDS011;59829;50.562;6.258;2024-02-28T00:34:12;5.72;;;2.30;;
71955;SDS011;59829;50.562;6.258;2024-02-28T00:44:12;5.82;;;2.50;;
71955;SDS011;59829;50.562;6.258;2024-02-28T00:54:12;5.50;;;2.30;;
71955;SDS011;59829;50.562;6.258;2024-02-28T01:04:13;4.63;;;2.00;;
71955;SDS011;59829;50.562;6.258;2024-02-28T01:14:13;4.95;;;2.20;;
71955;SDS011;59829;50.562;6.258;2024-02-28T01:24:13;4.10;;;2.05;;
71955;SDS011;59829;50.562;6.258;2024-02-28T01:34:14;4.63;;;1.92;;
71955;SDS011;59829;50.562;6.258;2024-02-28T01:44:14;4.63;;;2.00;;
71955;SDS011;59829;50.562;6.258;2024-02-28T01:54:15;4.57;;;1.95;;
71955;SDS011;59829;50.562;6.258;2024-02-28T02:04:16;4.25;;;2.00;;
71955;SDS011;59829;50.562;6.258;2024-02-28T02:14:16;4.13;;;1.95;;
71955;SDS011;59829;50.562;6.258;2024-02-28T02:24:17;4.32;;;1.90;;
71955;SDS011;59829;50.562;6.258;2024-02-28T02:34:17;3.92;;;1.80;;
71955;SDS011;59829;50.562;6.258;2024-02-28T02:44:17;3.88;;;1.60;;
71955;SDS011;59829;50.562;6.258;2024-02-28T02:54:18;3.83;;;1.80;;
71955;SDS011;59829;50.562;6.258;2024-02-28T03:04:18;4.97;;;2.00;;
71955;SDS011;59829;50.562;6.258;2024-02-28T03:14:18;3.65;;;1.73;;
71955;SDS011;59829;50.562;6.258;2024-02-28T03:24:22;3.83;;;1.80;;
71955;SDS011;59829;50.562;6.258;2024-02-28T03:34:22;4.03;;;1.92;;
71955;SDS011;59829;50.562;6.258;2024-02-28T03:44:22;4.60;;;1.90;;
71955;SDS011;59829;50.562;6.258;2024-02-28T03:54:23;3.88;;;1.80;;
71955;SDS011;59829;50.562;6.258;2024-02-28T04:04:23;4.15;;;1.90;;
71955;SDS011;59829;50.562;6.258;2024-02-28T04:14:24;4.68;;;1.90;;
71955;SDS011;59829;50.562;6.258;2024-02-28T04:24:24;4.28;;;1.98;;
71955;SDS011;59829;50.562;6.258;2024-02-28T04:34:24;4.00;;;1.95;;
71955;SDS011;59829;50.562;6.258;2024-02-28T04:44:25;4.43;;;1.92;;
71955;SDS011;59829;50.562;6.258;2024-02-28T04:54:25;4.13;;;1.90;;
71955;SDS011;59829;50.562;6.258;2024-02-28T05:04:25;4.53;;;2.00;;
71955;SDS011;59829;50.562;6.258;2024-02-28T05:14:26;4.75;;;2.10;;
71955;SDS011;59829;50.562;6.258;2024-02-28T05:24:27;4.18;;;2.00;;
71955;SDS011;59829;50.562;6.258;2024-02-28T05:34:27;4.88;;;2.00;;
71955;SDS011;59829;50.562;6.258;2024-02-28T05:44:27;3.97;;;1.88;;
71955;SDS011;59829;50.562;6.258;2024-02-28T05:54:28;4.68;;;2.00;;
71955;SDS011;59829;50.562;6.258;2024-02-28T06:04:28;3.35;;;1.80;;
71955;SDS011;59829;50.562;6.258;2024-02-28T06:14:28;4.68;;;2.00;;
71955;SDS011;59829;50.562;6.258;2024-02-28T06:24:29;4.65;;;2.03;;
71955;SDS011;59829;50.562;6.258;2024-02-28T06:34:29;4.32;;;1.85;;
71955;SDS011;59829;50.562;6.258;2024-02-28T06:44:29;3.80;;;1.83;;
71955;SDS011;59829;50.562;6.258;2024-02-28T06:54:30;3.95;;;1.90;;
71955;SDS011;59829;50.562;6.258;2024-02-28T07:04:30;3.80;;;1.90;;
71955;SDS011;59829;50.562;6.258;2024-02-28T07:14:30;3.83;;;1.77;;
71955;SDS011;59829;50.562;6.258;2024-02-28T07:24:31;4.60;;;2.00;;
71955;SDS011;59829;50.562;6.258;2024-02-28T07:34:32;4.43;;;1.90;;
71955;SDS011;59829;50.562;6.258;2024-02-28T07:44:33;3.88;;;1.73;;
71955;SDS011;59829;50.562;6.258;2024-02-28T07:54:34;4.18;;;2.00;;
71955;SDS011;59829;50.562;6.258;2024-02-28T08:04:34;4.43;;;1.95;;
71955;SDS011;59829;50.562;6.258;2024-02-28T08:14:34;3.17;;;1.50;;
71955;SDS011;59829;50.562;6.258;2024-02-28T08:24:35;4.57;;;1.77;;
71955;SDS011;59829;50.562;6.258;2024-02-28T08:34:35;4.93;;;2.03;;
71955;SDS011;59829;50.562;6.258;2024-02-28T08:44:35;4.75;;;2.05;;
71955;SDS011;59829;50.562;6.258;2024-02-28T08:54:37;5.47;;;2.33;;
71955;SDS011;59829;50.562;6.258;2024-02-28T09:04:37;6.80;;;2.70;;
71955;SDS011;59829;50.562;6.258;2024-02-28T09:14:37;7.75;;;2.97;;
71955;SDS011;59829;50.562;6.258;2024-02-28T09:24:38;6.80;;;2.90;;
71955;SDS011;59829;50.562;6.258;2024-02-28T09:34:39;8.07;;;3.20;;
71955;SDS011;59829;50.562;6.258;2024-02-28T09:44:39;6.10;;;2.70;;
71955;SDS011;59829;50.562;6.258;2024-02-28T09:54:40;7.28;;;3.08;;
71955;SDS011;59829;50.562;6.258;2024-02-28T10:14:43;10.73;;;3.17;;
71955;SDS011;59829;50.562;6.258;2024-02-28T10:24:43;7.75;;;2.60;;
71955;SDS011;59829;50.562;6.258;2024-02-28T10:34:44;9.53;;;2.70;;
71955;SDS011;59829;50.562;6.258;2024-02-28T10:44:47;5.78;;;2.75;;
71955;SDS011;59829;50.562;6.258;2024-02-28T10:54:54;5.05;;;2.05;;
71955;SDS011;59829;50.562;6.258;2024-02-28T11:04:58;5.00;;;2.00;;
71955;SDS011;59829;50.562;6.258;2024-02-28T11:15:02;5.20;;;1.80;;
71955;SDS011;59829;50.562;6.258;2024-02-28T11:25:04;4.60;;;2.00;;
71955;SDS011;59829;50.562;6.258;2024-02-28T11:35:05;4.60;;;1.67;;
71955;SDS011;59829;50.562;6.258;2024-02-28T11:45:05;4.55;;;1.30;;
71955;SDS011;59829;50.562;6.258;2024-02-28T11:55:09;3.40;;;1.45;;
71955;SDS011;59829;50.562;6.258;2024-02-28T12:05:10;4.65;;;1.30;;
71955;SDS011;59829;50.562;6.258;2024-02-28T12:15:11;2.63;;;1.15;;
71955;SDS011;59829;50.562;6.258;2024-02-28T12:25:11;4.13;;;1.10;;
71955;SDS011;59829;50.562;6.258;2024-02-28T12:35:11;3.15;;;1.13;;
71955;SDS011;59829;50.562;6.258;2024-02-28T12:45:12;2.05;;;0.90;;
71955;SDS011;59829;50.562;6.258;2024-02-28T12:55:12;1.52;;;0.70;;
71955;SDS011;59829;50.562;6.258;2024-02-28T13:05:14;1.63;;;0.68;;
71955;SDS011;59829;50.562;6.258;2024-02-28T13:15:15;1.63;;;0.60;;
71955;SDS011;59829;50.562;6.258;2024-02-28T13:25:15;2.80;;;0.70;;
71955;SDS011;59829;50.562;6.258;2024-02-28T13:35:18;1.58;;;0.50;;
71955;SDS011;59829;50.562;6.258;2024-02-28T13:45:19;1.77;;;0.57;;
71955;SDS011;59829;50.562;6.258;2024-02-28T13:55:19;1.15;;;0.50;;
71955;SDS011;59829;50.562;6.258;2024-02-28T14:05:19;1.15;;;0.50;;
71955;SDS011;59829;50.562;6.258;2024-02-28T14:15:20;0.88;;;0.30;;
71955;SDS011;59829;50.562;6.258;2024-02-28T14:25:21;1.25;;;0.30;;
71955;SDS011;59829;50.562;6.258;2024-02-28T14:35:21;1.33;;;0.30;;
71955;SDS011;59829;50.562;6.258;2024-02-28T14:45:22;0.38;;;0.20;;
71955;SDS011;59829;50.562;6.258;2024-02-28T14:55:24;1.40;;;0.20;;
71955;SDS011;59829;50.562;6.258;2024-02-28T15:05:24;1.13;;;0.40;;
71955;SDS011;59829;50.562;6.258;2024-02-28T15:15:25;0.82;;;0.35;;
71955;SDS011;59829;50.562;6.258;2024-02-28T15:25:25;0.80;;;0.30;;
71955;SDS011;59829;50.562;6.258;2024-02-28T15:35:25;0.38;;;0.20;;
71955;SDS011;59829;50.562;6.258;2024-02-28T15:45:26;1.42;;;0.40;;
71955;SDS011;59829;50.562;6.258;2024-02-28T15:55:26;1.13;;;0.40;;
71955;SDS011;59829;50.562;6.258;2024-02-28T16:05:27;0.47;;;0.22;;
71955;SDS011;59829;50.562;6.258;2024-02-28T16:15:28;0.68;;;0.25;;
71955;SDS011;59829;50.562;6.258;2024-02-28T16:25:28;0.70;;;0.40;;
71955;SDS011;59829;50.562;6.258;2024-02-28T16:35:29;1.00;;;0.40;;
71955;SDS011;59829;50.562;6.258;2024-02-28T16:45:30;1.10;;;0.40;;
71955;SDS011;59829;50.562;6.258;2024-02-28T16:55:31;1.33;;;0.60;;
71955;SDS011;59829;50.562;6.258;2024-02-28T17:05:31;1.50;;;0.52;;
71955;SDS011;59829;50.562;6.258;2024-02-28T17:15:33;1.30;;;0.73;;
71955;SDS011;59829;50.562;6.258;2024-02-28T17:25:33;2.40;;;0.70;;
71955;SDS011;59829;50.562;6.258;2024-02-28T17:35:33;1.17;;;0.50;;
71955;SDS011;59829;50.562;6.258;2024-02-28T17:45:34;1.52;;;0.60;;
71955;SDS011;59829;50.562;6.258;2024-02-28T17:55:34;2.05;;;0.85;;
71955;SDS011;59829;50.562;6.258;2024-02-28T18:05:35;1.52;;;0.80;;
71955;SDS011;59829;50.562;6.258;2024-02-28T18:15:35;2.50;;;1.17;;
71955;SDS011;59829;50.562;6.258;2024-02-28T18:25:35;2.25;;;1.00;;
71955;SDS011;59829;50.562;6.258;2024-02-28T18:35:36;1.83;;;0.80;;
71955;SDS011;59829;50.562;6.258;2024-02-28T18:45:37;2.55;;;1.15;;
71955;SDS011;59829;50.562;6.258;2024-02-28T18:55:38;2.40;;;1.20;;
71955;SDS011;59829;50.562;6.258;2024-02-28T19:05:39;2.28;;;1.05;;
71955;SDS011;59829;50.562;6.258;2024-02-28T19:15:40;2.37;;;1.00;;
71955;SDS011;59829;50.562;6.258;2024-02-28T19:25:40;2.00;;;1.02;;
71955;SDS011;59829;50.562;6.258;2024-02-28T19:35:41;2.40;;;1.10;;
71955;SDS011;59829;50.562;6.258;2024-02-28T19:45:43;1.80;;;0.90;;
71955;SDS011;59829;50.562;6.258;2024-02-28T19:55:45;3.05;;;1.02;;
71955;SDS011;59829;50.562;6.258;2024-02-28T20:05:46;2.53;;;1.20;;
71955;SDS011;59829;50.562;6.258;2024-02-28T20:15:46;2.28;;;1.20;;
71955;SDS011;59829;50.562;6.258;2024-02-28T20:25:46;4.28;;;1.70;;
71955;SDS011;59829;50.562;6.258;2024-02-28T20:35:48;4.05;;;1.70;;
71955;SDS011;59829;50.562;6.258;2024-02-28T20:45:49;3.85;;;1.70;;
71955;SDS011;59829;50.562;6.258;2024-02-28T20:55:49;5.18;;;1.65;;
71955;SDS011;59829;50.562;6.258;2024-02-28T21:05:50;5.27;;;2.10;;
71955;SDS011;59829;50.562;6.258;2024-02-28T21:15:50;4.25;;;1.92;;
71955;SDS011;59829;50.562;6.258;2024-02-28T21:25:51;4.32;;;1.85;;
71955;SDS011;59829;50.562;6.258;2024-02-28T21:35:51;4.78;;;1.95;;
71955;SDS011;59829;50.562;6.258;2024-02-28T21:45:51;3.72;;;1.80;;
71955;SDS011;59829;50.562;6.258;2024-02-28T21:55:52;5.28;;;2.10;;
71955;SDS011;59829;50.562;6.258;2024-02-28T22:05:53;5.50;;;2.13;;
71955;SDS011;59829;50.562;6.258;2024-02-28T22:15:53;4.97;;;2.08;;
71955;SDS011;59829;50.562;6.258;2024-02-28T22:25:54;3.17;;;1.60;;
71955;SDS011;59829;50.562;6.258;2024-02-28T22:45:57;4.05;;;1.80;;
71955;SDS011;59829;50.562;6.258;2024-02-28T22:55:57;5.00;;;1.88;;
71955;SDS011;59829;50.562;6.258;2024-02-28T23:05:57;4.38;;;1.90;;
71955;SDS011;59829;50.562;6.258;2024-02-28T23:16:00;4.97;;;2.10;;
71955;SDS011;59829;50.562;6.258;2024-02-28T23:26:00;5.97;;;2.13;;
71955;SDS011;59829;50.562;6.258;2024-02-28T23:36:00;5.75;;;2.05;;
71955;SDS011;59829;50.562;6.258;2024-02-28T23:46:01;5.15;;;2.20;;
71955;SDS011;59829;50.562;6.258;2024-02-28T23:56:01;3.95;;;1.80;;
